createdAt,value
2022-09-16T00:00:59.009Z,15.98
2022-09-16T00:03:27.006Z,15.95
2022-09-16T00:05:55.212Z,15.94
2022-09-16T00:08:24.613Z,15.89
2022-09-16T00:10:52.408Z,15.88
2022-09-16T00:13:20.777Z,15.89
2022-09-16T00:15:51.252Z,15.95
2022-09-16T00:18:20.408Z,15.95
2022-09-16T00:20:49.735Z,15.93
2022-09-16T00:23:18.277Z,15.89
2022-09-16T00:25:51.627Z,15.82
2022-09-16T00:28:19.673Z,15.82
2022-09-16T00:30:47.516Z,15.83
2022-09-16T00:33:15.288Z,15.82
2022-09-16T00:35:43.187Z,15.80
2022-09-16T00:38:11.015Z,15.78
2022-09-16T00:40:45.436Z,15.77
2022-09-16T00:43:16.418Z,15.77
2022-09-16T00:45:47.734Z,15.71
2022-09-16T00:48:20.653Z,15.72
2022-09-16T00:50:51.456Z,15.72
2022-09-16T00:53:24.434Z,15.73
2022-09-16T00:55:54.717Z,15.72
2022-09-16T00:58:29.627Z,15.75
2022-09-16T01:00:57.540Z,15.75
2022-09-16T01:03:27.153Z,15.78
2022-09-16T01:05:55.005Z,15.77
2022-09-16T01:08:22.843Z,15.81
2022-09-16T01:10:50.619Z,15.82
2022-09-16T01:13:18.742Z,15.84
2022-09-16T01:15:56.601Z,15.83
2022-09-16T01:18:32.342Z,15.82
2022-09-16T01:21:26.568Z,15.76
2022-09-16T01:24:23.327Z,15.64
2022-09-16T01:27:08.310Z,15.66
2022-09-16T01:30:17.577Z,15.53
2022-09-16T01:32:58.828Z,15.52
2022-09-16T01:35:34.568Z,15.49
2022-09-16T01:38:10.884Z,15.48
2022-09-16T01:40:44.705Z,15.52
2022-09-16T01:43:21.328Z,15.49
2022-09-16T01:45:56.501Z,15.43
2022-09-16T01:48:34.725Z,15.42
2022-09-16T01:51:09.594Z,15.41
2022-09-16T01:53:40.347Z,15.43
2022-09-16T01:56:14.519Z,15.42
2022-09-16T01:58:48.416Z,15.40
2022-09-16T02:01:23.613Z,15.36
2022-09-16T02:03:58.915Z,15.34
2022-09-16T02:06:29.731Z,15.32
2022-09-16T02:09:01.087Z,15.34
2022-09-16T02:11:28.891Z,15.39
2022-09-16T02:14:00.700Z,15.36
2022-09-16T02:16:36.517Z,15.38
2022-09-16T02:19:10.898Z,15.46
2022-09-16T02:21:45.412Z,15.45
2022-09-16T02:24:17.878Z,15.48
2022-09-16T02:26:52.939Z,15.52
2022-09-16T02:29:24.632Z,15.55
2022-09-16T02:31:57.325Z,15.59
2022-09-16T02:34:31.736Z,15.59
2022-09-16T02:37:05.765Z,15.58
2022-09-16T02:39:38.549Z,15.59
2022-09-16T02:42:07.396Z,15.59
2022-09-16T02:44:35.466Z,15.59
2022-09-16T02:47:10.635Z,15.58
2022-09-16T02:49:44.420Z,15.56
2022-09-16T02:52:17.835Z,15.55
2022-09-16T02:54:53.612Z,15.53
2022-09-16T02:57:21.949Z,15.53
2022-09-16T02:59:50.765Z,15.51
2022-09-16T03:02:19.082Z,15.49
2022-09-16T03:04:48.254Z,15.44
2022-09-16T03:07:17.515Z,15.39
2022-09-16T03:09:49.023Z,15.34
2022-09-16T03:12:25.002Z,15.28
2022-09-16T03:15:26.420Z,15.24
2022-09-16T03:18:12.434Z,15.20
2022-09-16T03:20:48.342Z,15.14
2022-09-16T03:23:28.743Z,15.11
2022-09-16T03:26:04.989Z,15.12
2022-09-16T03:28:42.166Z,15.07
2022-09-16T03:31:12.834Z,15.03
2022-09-16T03:33:48.654Z,15.05
2022-09-16T03:36:22.131Z,15.02
2022-09-16T03:38:51.300Z,14.99
2022-09-16T03:41:19.450Z,15.01
2022-09-16T03:43:54.242Z,14.97
2022-09-16T03:46:22.666Z,15.01
2022-09-16T03:48:50.541Z,14.99
2022-09-16T03:51:19.800Z,14.99
2022-09-16T03:53:47.603Z,14.96
2022-09-16T03:56:15.346Z,14.97
2022-09-16T03:58:43.144Z,14.95
2022-09-16T04:01:11.002Z,14.97
2022-09-16T04:03:38.802Z,15.02
2022-09-16T04:06:06.967Z,15.05
2022-09-16T04:08:36.175Z,15.06
2022-09-16T04:11:06.363Z,15.11
2022-09-16T04:13:35.508Z,15.19
2022-09-16T04:16:06.333Z,15.23
2022-09-16T04:18:34.950Z,15.23
2022-09-16T04:21:04.826Z,15.20
2022-09-16T04:23:32.976Z,15.18
2022-09-16T04:26:03.739Z,15.19
2022-09-16T04:28:34.662Z,15.16
2022-09-16T04:31:03.458Z,15.11
2022-09-16T04:33:32.662Z,15.07
2022-09-16T04:36:04.594Z,15.04
2022-09-16T04:38:32.406Z,15.05
2022-09-16T04:41:06.616Z,15.03
2022-09-16T04:43:35.078Z,15.05
2022-09-16T04:46:03.280Z,15.07
2022-09-16T04:48:31.460Z,15.06
2022-09-16T04:51:04.334Z,14.97
2022-09-16T04:53:32.227Z,14.94
2022-09-16T04:56:09.433Z,14.87
2022-09-16T04:58:38.202Z,14.89
2022-09-16T05:01:07.962Z,14.85
2022-09-16T05:03:35.782Z,14.85
2022-09-16T05:06:09.083Z,14.81
2022-09-16T05:08:37.050Z,14.80
2022-09-16T05:11:08.031Z,14.77
2022-09-16T05:13:35.915Z,14.75
2022-09-16T05:16:06.027Z,14.72
2022-09-16T05:18:33.955Z,14.74
2022-09-16T05:21:04.803Z,14.76
2022-09-16T05:23:33.623Z,14.77
2022-09-16T05:26:04.874Z,14.74
2022-09-16T05:28:34.376Z,14.71
2022-09-16T05:31:09.886Z,14.76
2022-09-16T05:33:38.030Z,14.78
2022-09-16T05:36:07.239Z,14.83
2022-09-16T05:38:35.013Z,14.85
2022-09-16T05:41:03.788Z,14.88
2022-09-16T05:43:33.532Z,14.91
2022-09-16T05:46:01.603Z,14.90
2022-09-16T05:48:29.768Z,14.91
2022-09-16T05:50:59.768Z,14.92
2022-09-16T05:53:28.921Z,14.93
2022-09-16T05:55:57.858Z,14.92
2022-09-16T05:58:26.725Z,14.96
2022-09-16T06:01:01.091Z,14.96
2022-09-16T06:03:29.755Z,14.95
2022-09-16T06:06:01.816Z,14.95
2022-09-16T06:08:29.786Z,14.96
2022-09-16T06:10:57.589Z,14.94
2022-09-16T06:13:25.346Z,14.88
2022-09-16T06:15:57.815Z,14.89
2022-09-16T06:18:29.550Z,14.92
2022-09-16T06:20:58.297Z,14.92
2022-09-16T06:23:26.361Z,14.92
2022-09-16T06:26:01.271Z,14.97
2022-09-16T06:28:29.053Z,14.99
2022-09-16T06:31:07.942Z,14.97
2022-09-16T06:33:37.753Z,15.02
2022-09-16T06:36:06.605Z,15.03
2022-09-16T06:38:34.538Z,15.01
2022-09-16T06:41:03.258Z,15.04
2022-09-16T06:43:31.661Z,15.09
2022-09-16T06:46:00.842Z,15.10
2022-09-16T06:48:29.047Z,15.17
2022-09-16T06:51:02.629Z,15.22
2022-09-16T06:53:31.184Z,15.29
2022-09-16T06:56:02.506Z,15.35
2022-09-16T06:58:33.481Z,15.38
2022-09-16T07:01:07.616Z,15.45
2022-09-16T07:03:38.449Z,15.47
2022-09-16T07:06:08.667Z,15.54
2022-09-16T07:08:37.951Z,15.57
2022-09-16T07:11:07.720Z,15.62
2022-09-16T07:13:35.729Z,15.64
2022-09-16T07:16:13.917Z,15.64
2022-09-16T07:18:42.976Z,15.71
2022-09-16T07:21:14.542Z,15.77
2022-09-16T07:23:43.620Z,15.92
2022-09-16T07:26:13.533Z,16.24
2022-09-16T07:28:42.788Z,16.52
2022-09-16T07:31:12.779Z,16.63
2022-09-16T07:33:42.291Z,16.74
2022-09-16T07:36:14.882Z,16.88
2022-09-16T07:38:42.739Z,17.14
2022-09-16T07:41:12.579Z,17.49
2022-09-16T07:43:41.425Z,17.73
2022-09-16T07:46:11.494Z,18.00
2022-09-16T07:48:39.873Z,18.27
2022-09-16T07:51:10.578Z,18.39
2022-09-16T07:53:40.056Z,18.57
2022-09-16T07:56:09.981Z,18.77
2022-09-16T07:58:38.242Z,18.97
2022-09-16T08:01:06.663Z,18.88
2022-09-16T08:03:34.967Z,18.98
2022-09-16T08:06:04.476Z,18.93
2022-09-16T08:08:32.700Z,18.76
2022-09-16T08:11:03.426Z,18.52
2022-09-16T08:13:32.908Z,18.79
2022-09-16T08:16:02.599Z,18.76
2022-09-16T08:18:31.109Z,18.65
2022-09-16T08:20:59.489Z,18.57
2022-09-16T08:23:27.240Z,18.85
2022-09-16T08:25:58.696Z,19.10
2022-09-16T08:28:39.799Z,19.19
2022-09-16T08:31:17.620Z,19.47
2022-09-16T08:33:46.086Z,19.41
2022-09-16T08:36:16.161Z,19.39
2022-09-16T08:38:45.271Z,19.53
2022-09-16T08:41:27.865Z,19.60
2022-09-16T08:44:04.850Z,19.83
2022-09-16T08:46:40.326Z,19.72
2022-09-16T08:49:26.799Z,19.72
2022-09-16T08:51:55.484Z,19.69
2022-09-16T08:54:29.342Z,19.50
2022-09-16T08:57:02.012Z,19.70
2022-09-16T08:59:37.387Z,19.79
2022-09-16T09:02:22.544Z,19.73
2022-09-16T09:04:50.755Z,19.72
2022-09-16T09:07:26.042Z,19.58
2022-09-16T09:10:07.106Z,19.79
2022-09-16T09:12:41.856Z,19.94
2022-09-16T09:15:34.765Z,20.02
2022-09-16T09:18:18.398Z,20.14
2022-09-16T09:20:55.269Z,20.14
2022-09-16T09:23:38.382Z,20.10
2022-09-16T09:26:14.816Z,19.98
2022-09-16T09:29:08.705Z,19.88
2022-09-16T09:31:48.746Z,19.94
2022-09-16T09:34:29.235Z,19.91
2022-09-16T09:37:18.318Z,19.87
2022-09-16T09:40:04.590Z,19.72
2022-09-16T09:42:38.473Z,19.58
2022-09-16T09:45:19.778Z,19.46
2022-09-16T09:47:53.420Z,19.44
2022-09-16T09:50:27.191Z,19.45
2022-09-16T09:53:05.722Z,19.67
2022-09-16T09:55:35.370Z,19.79
2022-09-16T09:58:12.345Z,19.78
2022-09-16T10:00:40.136Z,19.67
2022-09-16T10:03:13.730Z,19.60
2022-09-16T10:05:42.417Z,19.84
2022-09-16T10:08:18.434Z,20.05
2022-09-16T10:10:51.475Z,20.10
2022-09-16T10:13:20.600Z,20.21
2022-09-16T10:15:53.294Z,20.18
2022-09-16T10:18:27.509Z,20.06
2022-09-16T10:21:03.922Z,19.93
2022-09-16T10:23:32.324Z,19.87
2022-09-16T10:26:08.593Z,19.72
2022-09-16T10:28:37.656Z,19.80
2022-09-16T10:31:08.874Z,19.88
2022-09-16T10:33:44.735Z,20.01
2022-09-16T10:36:20.217Z,20.09
2022-09-16T10:38:53.122Z,20.31
2022-09-16T10:41:23.214Z,20.47
2022-09-16T10:43:53.986Z,20.65
2022-09-16T10:46:22.155Z,20.77
2022-09-16T10:48:54.174Z,20.89
2022-09-16T10:51:25.464Z,21.02
2022-09-16T10:53:56.029Z,21.12
2022-09-16T10:56:25.932Z,21.13
2022-09-16T10:59:03.529Z,21.03
2022-09-16T11:01:45.483Z,20.91
2022-09-16T11:04:55.552Z,20.79
2022-09-16T11:07:37.315Z,20.77
2022-09-16T11:10:20.150Z,20.60
2022-09-16T11:13:18.081Z,20.43
2022-09-16T11:16:02.209Z,20.33
2022-09-16T11:18:44.163Z,19.71
2022-09-16T11:21:31.486Z,19.39
2022-09-16T11:24:16.565Z,19.09
2022-09-16T11:26:52.895Z,18.93
2022-09-16T11:29:39.979Z,18.86
2022-09-16T11:32:18.168Z,18.85
2022-09-16T11:35:01.465Z,18.73
2022-09-16T11:37:38.924Z,18.76
2022-09-16T11:40:23.583Z,18.88
2022-09-16T11:43:05.338Z,18.98
2022-09-16T11:45:48.291Z,19.02
2022-09-16T11:48:39.353Z,19.05
2022-09-16T11:51:21.345Z,19.10
2022-09-16T11:54:15.033Z,19.09
2022-09-16T11:56:47.931Z,19.15
2022-09-16T11:59:22.582Z,19.13
2022-09-16T12:01:56.697Z,19.13
2022-09-16T12:04:31.813Z,19.03
2022-09-16T12:07:07.585Z,19.08
2022-09-16T12:09:42.788Z,19.18
2022-09-16T12:12:14.808Z,19.24
2022-09-16T12:14:46.382Z,19.21
2022-09-16T12:17:18.776Z,19.19
2022-09-16T12:19:53.454Z,19.15
2022-09-16T12:22:25.123Z,18.92
2022-09-16T12:25:01.111Z,18.80
2022-09-16T12:27:45.663Z,18.75
2022-09-16T12:30:18.342Z,18.69
2022-09-16T12:33:00.645Z,18.63
2022-09-16T12:35:33.235Z,18.72
2022-09-16T12:38:01.947Z,18.83
2022-09-16T12:40:37.617Z,18.84
2022-09-16T12:43:32.920Z,18.79
2022-09-16T12:46:35.084Z,18.85
2022-09-16T12:49:37.477Z,19.04
2022-09-16T12:52:27.240Z,19.21
2022-09-16T12:55:43.971Z,19.19
2022-09-16T12:58:29.839Z,19.14
2022-09-16T13:01:13.901Z,19.03
2022-09-16T13:03:46.457Z,19.08
2022-09-16T13:06:23.539Z,19.14
2022-09-16T13:08:52.202Z,19.12
2022-09-16T13:12:23.987Z,19.09
2022-09-16T13:14:22.834Z,19.01
2022-09-16T13:16:55.852Z,19.06
2022-09-16T13:19:34.130Z,19.00
2022-09-16T13:22:18.924Z,18.92
2022-09-16T13:24:51.960Z,18.82
2022-09-16T13:27:35.637Z,18.65
2022-09-16T13:30:22.061Z,18.62
2022-09-16T13:33:00.810Z,18.63
2022-09-16T13:35:42.548Z,18.72
2022-09-16T13:38:26.722Z,18.86
2022-09-16T13:40:59.472Z,19.04
2022-09-16T13:43:33.324Z,19.08
2022-09-16T13:46:10.392Z,19.19
2022-09-16T13:48:44.309Z,19.15
2022-09-16T13:51:19.296Z,19.17
2022-09-16T13:53:49.459Z,19.13
2022-09-16T13:56:43.929Z,19.04
2022-09-16T13:59:26.623Z,19.16
2022-09-16T14:02:05.419Z,19.30
2022-09-16T14:04:51.382Z,19.31
2022-09-16T14:07:31.119Z,19.30
2022-09-16T14:10:04.467Z,19.32
2022-09-16T14:12:40.631Z,19.36
2022-09-16T14:15:10.330Z,19.20
2022-09-16T14:17:42.267Z,19.06
2022-09-16T14:20:17.205Z,18.97
2022-09-16T14:22:45.502Z,18.98
2022-09-16T14:25:29.675Z,18.85
2022-09-16T14:28:17.141Z,18.96
2022-09-16T14:30:52.791Z,19.04
2022-09-16T14:33:24.670Z,19.09
2022-09-16T14:35:55.997Z,19.17
2022-09-16T14:39:07.086Z,19.17
2022-09-16T14:41:25.834Z,19.22
2022-09-16T14:43:56.074Z,19.20
2022-09-16T14:46:25.402Z,19.21
2022-09-16T14:48:53.216Z,19.18
2022-09-16T14:51:24.672Z,19.11
2022-09-16T14:54:13.361Z,19.09
2022-09-16T14:56:41.729Z,19.12
2022-09-16T14:59:12.604Z,19.19
2022-09-16T15:01:43.267Z,19.26
2022-09-16T15:04:18.566Z,19.27
2022-09-16T15:06:52.766Z,19.25
2022-09-16T15:09:36.013Z,19.24
2022-09-16T15:12:05.504Z,19.27
2022-09-16T15:14:33.402Z,19.17
2022-09-16T15:17:04.896Z,19.01
2022-09-16T15:19:37.006Z,18.88
2022-09-16T15:22:06.010Z,18.80
2022-09-16T15:24:35.908Z,18.81
2022-09-16T15:27:04.530Z,18.80
2022-09-16T15:29:35.097Z,18.87
2022-09-16T15:32:21.689Z,18.73
2022-09-16T15:35:06.100Z,18.82
2022-09-16T15:37:35.696Z,18.70
2022-09-16T15:40:12.559Z,18.57
2022-09-16T15:42:40.371Z,18.56
2022-09-16T15:45:17.361Z,18.57
2022-09-16T15:47:56.575Z,18.46
2022-09-16T15:50:27.079Z,18.45
2022-09-16T15:53:00.472Z,18.41
2022-09-16T15:55:34.158Z,18.27
2022-09-16T15:58:07.568Z,18.27
2022-09-16T16:01:02.846Z,18.19
2022-09-16T16:03:51.157Z,18.32
2022-09-16T16:06:19.165Z,18.35
2022-09-16T16:08:50.107Z,18.38
2022-09-16T16:11:21.202Z,18.37
2022-09-16T16:13:51.217Z,18.26
2022-09-16T16:16:20.223Z,18.14
2022-09-16T16:18:49.385Z,18.11
2022-09-16T16:21:17.942Z,18.06
2022-09-16T16:23:45.645Z,18.03
2022-09-16T16:26:13.529Z,18.00
2022-09-16T16:28:41.291Z,17.95
2022-09-16T16:31:14.697Z,17.91
2022-09-16T16:33:44.884Z,17.85
2022-09-16T16:36:15.083Z,17.84
2022-09-16T16:38:43.699Z,17.77
2022-09-16T16:41:12.346Z,17.67
2022-09-16T16:43:40.709Z,17.64
2022-09-16T16:46:08.941Z,17.65
2022-09-16T16:48:37.134Z,17.54
2022-09-16T16:51:07.743Z,17.49
2022-09-16T16:53:37.577Z,17.38
2022-09-16T16:56:09.275Z,17.30
2022-09-16T16:58:40.742Z,17.28
2022-09-16T17:01:09.590Z,17.25
2022-09-16T17:03:39.109Z,17.25
2022-09-16T17:06:07.941Z,17.21
2022-09-16T17:08:37.216Z,17.21
2022-09-16T17:11:10.132Z,17.16
2022-09-16T17:13:38.719Z,17.10
2022-09-16T17:16:07.250Z,17.10
2022-09-16T17:18:35.554Z,17.05
2022-09-16T17:21:04.772Z,17.02
2022-09-16T17:23:32.758Z,16.93
2022-09-16T17:26:02.890Z,16.83
2022-09-16T17:28:31.033Z,16.76
2022-09-16T17:30:58.972Z,16.73
2022-09-16T17:33:26.783Z,16.69
2022-09-16T17:36:01.825Z,16.58
2022-09-16T17:38:29.778Z,16.59
2022-09-16T17:41:04.077Z,16.51
2022-09-16T17:43:32.952Z,16.50
2022-09-16T17:46:01.414Z,16.43
2022-09-16T17:48:29.845Z,16.42
2022-09-16T17:50:58.128Z,16.38
2022-09-16T17:53:26.725Z,16.34
2022-09-16T17:56:02.061Z,16.30
2022-09-16T17:58:31.822Z,16.24
2022-09-16T18:01:06.247Z,16.20
2022-09-16T18:03:34.435Z,16.26
2022-09-16T18:06:07.413Z,16.23
2022-09-16T18:08:35.602Z,16.19
2022-09-16T18:11:03.826Z,16.21
2022-09-16T18:13:33.524Z,16.22
2022-09-16T18:16:05.449Z,16.23
2022-09-16T18:18:33.293Z,16.21
2022-09-16T18:21:01.061Z,16.16
2022-09-16T18:23:28.935Z,16.15
2022-09-16T18:25:57.150Z,16.17
2022-09-16T18:28:25.190Z,16.20
2022-09-16T18:31:04.359Z,16.17
2022-09-16T18:33:32.166Z,16.16
2022-09-16T18:36:01.430Z,16.13
2022-09-16T18:38:30.036Z,16.05
2022-09-16T18:41:06.305Z,15.96
2022-09-16T18:43:34.507Z,15.88
2022-09-16T18:46:15.271Z,15.73
2022-09-16T18:48:45.398Z,15.73
2022-09-16T18:51:18.001Z,15.67
2022-09-16T18:53:46.568Z,15.61
2022-09-16T18:56:19.711Z,15.60
2022-09-16T18:59:10.062Z,15.57
2022-09-16T19:01:38.330Z,15.53
2022-09-16T19:04:08.314Z,15.45
2022-09-16T19:06:38.522Z,15.35
2022-09-16T19:09:08.828Z,15.32
2022-09-16T19:11:37.452Z,15.27
2022-09-16T19:14:06.510Z,15.27
2022-09-16T19:16:34.327Z,15.21
2022-09-16T19:19:05.499Z,15.17
2022-09-16T19:21:33.679Z,15.09
2022-09-16T19:24:03.636Z,15.04
2022-09-16T19:26:33.509Z,15.02
2022-09-16T19:29:01.525Z,14.96
2022-09-16T19:31:31.408Z,14.89
2022-09-16T19:34:00.486Z,14.87
2022-09-16T19:36:33.620Z,14.82
2022-09-16T19:39:02.203Z,14.81
2022-09-16T19:41:32.204Z,14.78
2022-09-16T19:44:02.646Z,14.77
2022-09-16T19:46:32.429Z,14.73
2022-09-16T19:49:00.246Z,14.76
2022-09-16T19:51:29.456Z,14.68
2022-09-16T19:53:58.327Z,14.65
2022-09-16T19:56:27.931Z,14.63
2022-09-16T19:58:56.434Z,14.58
2022-09-16T20:01:26.066Z,14.56
2022-09-16T20:03:54.483Z,14.53
2022-09-16T20:06:24.273Z,14.51
2022-09-16T20:08:56.431Z,14.50
2022-09-16T20:11:29.303Z,14.52
2022-09-16T20:13:58.977Z,14.48
2022-09-16T20:16:28.832Z,14.49
2022-09-16T20:18:56.689Z,14.48
2022-09-16T20:21:26.451Z,14.50
2022-09-16T20:23:56.045Z,14.48
2022-09-16T20:26:24.484Z,14.43
2022-09-16T20:28:54.434Z,14.33
2022-09-16T20:31:24.827Z,14.43
2022-09-16T20:33:53.579Z,14.44
2022-09-16T20:36:22.917Z,14.45
2022-09-16T20:38:51.476Z,14.47
2022-09-16T20:41:22.492Z,14.48
2022-09-16T20:43:51.034Z,14.46
2022-09-16T20:46:21.575Z,14.45
2022-09-16T20:48:50.031Z,14.50
2022-09-16T20:51:19.764Z,14.45
2022-09-16T20:53:52.492Z,14.43
2022-09-16T20:56:22.583Z,14.43
2022-09-16T20:58:50.547Z,14.38
2022-09-16T21:01:20.658Z,14.33
2022-09-16T21:03:52.069Z,14.28
2022-09-16T21:06:20.624Z,14.22
2022-09-16T21:08:48.714Z,14.21
2022-09-16T21:11:18.182Z,14.20
2022-09-16T21:13:52.752Z,14.21
2022-09-16T21:16:21.636Z,14.25
2022-09-16T21:18:54.316Z,14.23
2022-09-16T21:21:22.567Z,14.19
2022-09-16T21:23:51.131Z,14.17
2022-09-16T21:26:20.652Z,14.16
2022-09-16T21:28:57.054Z,14.15
2022-09-16T21:31:26.152Z,14.13
2022-09-16T21:33:54.147Z,14.10
2022-09-16T21:36:23.625Z,14.07
2022-09-16T21:38:52.636Z,13.98
2022-09-16T21:41:22.404Z,14.00
2022-09-16T21:43:55.452Z,14.02
2022-09-16T21:46:26.705Z,14.04
2022-09-16T21:48:57.314Z,14.05
2022-09-16T21:51:25.433Z,14.10
2022-09-16T21:53:53.681Z,14.13
2022-09-16T21:56:23.142Z,14.10
2022-09-16T21:58:56.102Z,14.05
2022-09-16T22:01:25.702Z,14.04
2022-09-16T22:03:56.450Z,14.04
2022-09-16T22:06:25.530Z,14.09
2022-09-16T22:08:54.007Z,14.08
2022-09-16T22:11:24.230Z,14.06
2022-09-16T22:13:54.007Z,14.10
2022-09-16T22:16:27.083Z,14.12
2022-09-16T22:18:56.114Z,14.10
2022-09-16T22:21:25.542Z,14.10
2022-09-16T22:23:53.398Z,14.17
2022-09-16T22:26:23.088Z,14.21
2022-09-16T22:28:51.516Z,14.25
2022-09-16T22:31:22.982Z,14.24
2022-09-16T22:33:52.866Z,14.21
2022-09-16T22:36:22.582Z,14.25
2022-09-16T22:38:52.979Z,14.29
2022-09-16T22:41:21.337Z,14.33
2022-09-16T22:43:51.434Z,14.39
2022-09-16T22:46:22.141Z,14.37
2022-09-16T22:48:50.481Z,14.29
2022-09-16T22:51:20.224Z,14.23
2022-09-16T22:53:48.763Z,14.23
2022-09-16T22:56:19.137Z,14.23
2022-09-16T22:58:48.155Z,14.24
2022-09-16T23:01:18.218Z,14.21
2022-09-16T23:03:48.311Z,14.20
2022-09-16T23:06:16.896Z,14.12
2022-09-16T23:08:46.454Z,14.06
2022-09-16T23:11:16.296Z,14.07
2022-09-16T23:13:45.558Z,14.07
2022-09-16T23:16:16.210Z,14.02
2022-09-16T23:18:45.094Z,14.01
2022-09-16T23:21:15.975Z,13.97
2022-09-16T23:23:45.871Z,13.95
2022-09-16T23:26:18.103Z,13.93
2022-09-16T23:28:47.394Z,13.89
2022-09-16T23:31:17.097Z,13.85
2022-09-16T23:33:45.798Z,13.83
2022-09-16T23:36:16.840Z,13.83
2022-09-16T23:38:45.525Z,13.77
2022-09-16T23:41:15.431Z,13.77
2022-09-16T23:43:44.216Z,13.79
2022-09-16T23:46:14.135Z,13.83
2022-09-16T23:48:43.128Z,13.79
2022-09-16T23:51:11.455Z,13.77
2022-09-16T23:53:42.325Z,13.77
2022-09-16T23:56:12.099Z,13.76
2022-09-16T23:58:40.189Z,13.74
